sensor_id;sensor_type;location;lat;lon;timestamp;P1;durP1;ratioP1;P2;durP2;ratioP2
9874;SDS011;4976;46.786;7.632;2023-02-11T05:07:19;2.60;;;2.07;;
9874;SDS011;4976;46.786;7.632;2023-02-11T05:10:18;3.37;;;2.40;;
9874;SDS011;4976;46.786;7.632;2023-02-11T05:12:59;4.57;;;2.57;;
9874;SDS011;4976;46.786;7.632;2023-02-11T05:16:08;5.70;;;2.83;;
9874;SDS011;4976;46.786;7.632;2023-02-11T09:52:04;8.13;;;4.60;;
9874;SDS011;4976;46.786;7.632;2023-02-11T09:54:48;4.97;;;3.50;;
9874;SDS011;4976;46.786;7.632;2023-02-11T10:24:36;6.33;;;3.73;;
9874;SDS011;4976;46.786;7.632;2023-02-11T11:01:02;4.70;;;2.50;;
9874;SDS011;4976;46.786;7.632;2023-02-11T11:03:31;4.83;;;3.40;;
9874;SDS011;4976;46.786;7.632;2023-02-11T11:06:04;3.47;;;2.73;;
9874;SDS011;4976;46.786;7.632;2023-02-11T11:08:37;5.47;;;2.50;;
9874;SDS011;4976;46.786;7.632;2023-02-11T11:11:09;2.73;;;2.13;;
9874;SDS011;4976;46.786;7.632;2023-02-11T11:13:39;3.37;;;2.00;;
9874;SDS011;4976;46.786;7.632;2023-02-11T11:16:14;4.17;;;1.93;;
9874;SDS011;4976;46.786;7.632;2023-02-11T11:19:13;2.83;;;2.00;;
9874;SDS011;4976;46.786;7.632;2023-02-11T11:21:47;2.17;;;1.97;;
9874;SDS011;4976;46.786;7.632;2023-02-11T11:24:27;2.60;;;2.00;;
9874;SDS011;4976;46.786;7.632;2023-02-11T11:26:59;1.47;;;1.37;;
9874;SDS011;4976;46.786;7.632;2023-02-11T11:29:37;2.77;;;2.13;;
9874;SDS011;4976;46.786;7.632;2023-02-11T11:32:21;2.20;;;2.00;;
9874;SDS011;4976;46.786;7.632;2023-02-11T11:35:29;3.73;;;1.87;;
9874;SDS011;4976;46.786;7.632;2023-02-11T11:37:59;3.10;;;2.80;;
9874;SDS011;4976;46.786;7.632;2023-02-11T11:41:13;6.93;;;3.27;;
9874;SDS011;4976;46.786;7.632;2023-02-11T11:43:52;6.17;;;5.00;;
9874;SDS011;4976;46.786;7.632;2023-02-11T11:46:33;3.83;;;3.53;;
9874;SDS011;4976;46.786;7.632;2023-02-11T11:49:20;5.63;;;2.40;;
9874;SDS011;4976;46.786;7.632;2023-02-11T11:55:15;1.97;;;1.87;;
9874;SDS011;4976;46.786;7.632;2023-02-11T11:58:16;3.93;;;2.03;;
9874;SDS011;4976;46.786;7.632;2023-02-11T12:06:53;3.03;;;2.43;;
9874;SDS011;4976;46.786;7.632;2023-02-11T12:10:02;2.83;;;2.30;;
9874;SDS011;4976;46.786;7.632;2023-02-11T12:13:05;8.20;;;2.73;;
9874;SDS011;4976;46.786;7.632;2023-02-11T12:15:51;2.60;;;2.40;;
9874;SDS011;4976;46.786;7.632;2023-02-11T12:21:32;2.80;;;2.60;;
9874;SDS011;4976;46.786;7.632;2023-02-11T12:24:14;2.93;;;2.20;;
9874;SDS011;4976;46.786;7.632;2023-02-11T12:27:05;3.37;;;2.13;;
9874;SDS011;4976;46.786;7.632;2023-02-11T12:29:40;2.10;;;1.90;;
9874;SDS011;4976;46.786;7.632;2023-02-11T12:32:20;2.87;;;2.10;;
9874;SDS011;4976;46.786;7.632;2023-02-11T12:35:19;2.70;;;2.33;;
9874;SDS011;4976;46.786;7.632;2023-02-11T12:38:15;2.90;;;2.27;;
9874;SDS011;4976;46.786;7.632;2023-02-11T12:40:59;3.27;;;2.57;;
9874;SDS011;4976;46.786;7.632;2023-02-11T12:49:28;2.63;;;2.23;;
9874;SDS011;4976;46.786;7.632;2023-02-11T12:52:20;3.23;;;2.50;;
9874;SDS011;4976;46.786;7.632;2023-02-11T12:55:47;3.20;;;2.50;;
9874;SDS011;4976;46.786;7.632;2023-02-11T12:58:45;4.10;;;2.80;;
9874;SDS011;4976;46.786;7.632;2023-02-11T18:46:54;8.03;;;5.67;;
9874;SDS011;4976;46.786;7.632;2023-02-11T21:39:22;5.80;;;3.60;;
9874;SDS011;4976;46.786;7.632;2023-02-11T21:41:55;5.73;;;4.03;;
9874;SDS011;4976;46.786;7.632;2023-02-11T21:51:21;6.87;;;4.80;;
9874;SDS011;4976;46.786;7.632;2023-02-11T21:58:02;4.93;;;3.93;;
9874;SDS011;4976;46.786;7.632;2023-02-11T22:01:20;7.50;;;4.13;;
9874;SDS011;4976;46.786;7.632;2023-02-11T22:07:27;8.77;;;3.90;;
9874;SDS011;4976;46.786;7.632;2023-02-11T22:09:54;5.40;;;3.93;;
9874;SDS011;4976;46.786;7.632;2023-02-11T22:12:23;6.77;;;5.03;;
9874;SDS011;4976;46.786;7.632;2023-02-11T22:14:52;9.10;;;5.27;;
9874;SDS011;4976;46.786;7.632;2023-02-11T22:17:19;7.03;;;4.07;;
9874;SDS011;4976;46.786;7.632;2023-02-11T22:19:48;6.13;;;3.97;;
9874;SDS011;4976;46.786;7.632;2023-02-11T22:22:20;7.13;;;4.50;;
9874;SDS011;4976;46.786;7.632;2023-02-11T22:24:47;5.83;;;3.57;;
9874;SDS011;4976;46.786;7.632;2023-02-11T22:27:15;6.90;;;4.00;;
9874;SDS011;4976;46.786;7.632;2023-02-11T22:29:43;6.90;;;3.83;;
9874;SDS011;4976;46.786;7.632;2023-02-11T22:32:13;5.40;;;3.90;;
9874;SDS011;4976;46.786;7.632;2023-02-11T22:34:43;7.20;;;4.43;;
9874;SDS011;4976;46.786;7.632;2023-02-11T22:37:11;7.80;;;4.27;;
9874;SDS011;4976;46.786;7.632;2023-02-11T22:39:41;7.20;;;4.63;;
9874;SDS011;4976;46.786;7.632;2023-02-11T22:42:11;11.20;;;5.33;;
9874;SDS011;4976;46.786;7.632;2023-02-11T22:44:38;10.87;;;4.77;;
9874;SDS011;4976;46.786;7.632;2023-02-11T22:47:07;6.43;;;3.70;;
9874;SDS011;4976;46.786;7.632;2023-02-11T22:49:36;6.83;;;4.47;;
9874;SDS011;4976;46.786;7.632;2023-02-11T22:52:05;5.37;;;3.60;;
9874;SDS011;4976;46.786;7.632;2023-02-11T22:54:34;8.90;;;3.97;;
9874;SDS011;4976;46.786;7.632;2023-02-11T22:57:01;7.27;;;4.40;;
9874;SDS011;4976;46.786;7.632;2023-02-11T22:59:36;6.20;;;3.23;;
